createdAt,value
2023-04-09T00:02:06.588Z,1.58
2023-04-09T00:04:33.957Z,1.63
2023-04-09T00:07:02.788Z,1.70
2023-04-09T00:09:30.424Z,1.73
2023-04-09T00:11:58.306Z,2.10
2023-04-09T00:14:25.706Z,2.90
2023-04-09T00:16:54.729Z,2.92
2023-04-09T00:19:21.938Z,2.10
2023-04-09T00:21:48.736Z,1.90
2023-04-09T00:24:16.045Z,1.90
2023-04-09T00:26:42.855Z,1.45
2023-04-09T00:29:09.650Z,1.77
2023-04-09T00:31:36.424Z,2.13
2023-04-09T00:34:03.286Z,2.15
2023-04-09T00:36:30.008Z,2.10
2023-04-09T00:38:56.792Z,2.70
2023-04-09T00:41:23.552Z,2.20
2023-04-09T00:43:50.315Z,2.00
2023-04-09T00:46:18.058Z,2.45
2023-04-09T00:48:45.085Z,2.08
2023-04-09T00:51:11.895Z,2.10
2023-04-09T00:53:38.731Z,1.70
2023-04-09T00:56:06.719Z,1.70
2023-04-09T00:58:33.830Z,1.90
2023-04-09T01:01:00.758Z,1.90
2023-04-09T01:03:27.713Z,1.98
2023-04-09T01:06:17.787Z,1.55
2023-04-09T01:08:55.222Z,1.60
2023-04-09T01:11:56.819Z,1.90
2023-04-09T01:14:32.811Z,2.50
2023-04-09T01:17:06.721Z,2.42
2023-04-09T01:19:58.615Z,2.40
2023-04-09T01:22:57.307Z,2.20
2023-04-09T01:25:54.646Z,2.00
2023-04-09T01:28:27.270Z,2.40
2023-04-09T01:31:00.825Z,1.92
2023-04-09T01:33:29.420Z,2.30
2023-04-09T01:35:57.226Z,2.05
2023-04-09T01:38:25.706Z,1.90
2023-04-09T01:40:53.860Z,3.15
2023-04-09T01:43:21.304Z,2.47
2023-04-09T01:45:49.467Z,2.38
2023-04-09T01:48:16.942Z,2.40
2023-04-09T01:50:44.434Z,2.40
2023-04-09T01:53:11.433Z,2.65
2023-04-09T01:55:38.198Z,2.85
2023-04-09T01:58:04.995Z,2.47
2023-04-09T02:00:36.885Z,1.88
2023-04-09T02:03:28.607Z,2.10
2023-04-09T02:06:24.602Z,2.72
2023-04-09T02:08:53.254Z,2.05
2023-04-09T02:11:23.565Z,2.10
2023-04-09T02:13:54.334Z,2.08
2023-04-09T02:16:21.995Z,2.10
2023-04-09T02:18:57.037Z,1.77
2023-04-09T02:21:24.319Z,2.00
2023-04-09T02:23:51.207Z,1.95
2023-04-09T02:26:17.978Z,2.03
2023-04-09T02:28:44.709Z,1.58
2023-04-09T02:31:11.618Z,1.35
2023-04-09T02:33:38.433Z,1.45
2023-04-09T02:36:05.981Z,1.80
2023-04-09T02:38:33.139Z,2.75
2023-04-09T02:40:59.951Z,3.10
2023-04-09T02:43:26.823Z,2.85
2023-04-09T02:45:53.546Z,2.95
2023-04-09T02:48:20.320Z,3.42
2023-04-09T02:50:47.064Z,3.50
2023-04-09T02:53:13.855Z,3.03
2023-04-09T02:55:40.949Z,2.25
2023-04-09T02:58:07.680Z,2.58
2023-04-09T03:00:34.541Z,2.05
2023-04-09T03:03:02.606Z,2.00
2023-04-09T03:05:29.536Z,1.63
2023-04-09T03:07:57.467Z,1.90
2023-04-09T03:10:24.243Z,1.98
2023-04-09T03:12:51.158Z,2.00
2023-04-09T03:15:17.924Z,2.42
2023-04-09T03:17:44.742Z,2.72
2023-04-09T03:20:11.579Z,3.08
2023-04-09T03:22:39.171Z,3.78
2023-04-09T03:25:06.553Z,2.75
2023-04-09T03:27:33.374Z,2.70
2023-04-09T03:30:00.440Z,3.00
2023-04-09T03:32:27.239Z,3.00
2023-04-09T03:34:54.032Z,2.33
2023-04-09T03:37:20.760Z,2.35
2023-04-09T03:39:47.571Z,2.38
2023-04-09T03:42:14.307Z,2.00
2023-04-09T03:44:41.074Z,1.52
2023-04-09T03:47:08.075Z,1.50
2023-04-09T03:49:38.041Z,1.95
2023-04-09T03:52:06.236Z,1.77
2023-04-09T03:54:33.044Z,2.05
2023-04-09T03:56:59.775Z,1.98
2023-04-09T03:59:26.544Z,2.15
2023-04-09T04:01:53.339Z,1.45
2023-04-09T04:04:22.838Z,1.35
2023-04-09T04:06:50.453Z,1.40
2023-04-09T04:09:17.237Z,1.52
2023-04-09T04:11:44.005Z,1.75
2023-04-09T04:14:10.970Z,1.52
2023-04-09T04:16:37.803Z,1.60
2023-04-09T04:19:04.604Z,1.55
2023-04-09T04:21:31.585Z,1.58
2023-04-09T04:23:58.329Z,1.92
2023-04-09T04:26:25.332Z,1.70
2023-04-09T04:28:52.335Z,1.25
2023-04-09T04:31:19.284Z,1.10
2023-04-09T04:33:46.092Z,1.45
2023-04-09T04:36:14.191Z,1.55
2023-04-09T04:38:41.916Z,1.70
2023-04-09T04:41:10.599Z,1.92
2023-04-09T04:43:37.378Z,1.92
2023-04-09T04:46:04.316Z,1.77
2023-04-09T04:48:32.060Z,2.50
2023-04-09T04:51:00.406Z,2.92
2023-04-09T04:53:28.522Z,3.13
2023-04-09T04:55:55.421Z,2.30
2023-04-09T04:58:22.221Z,2.45
2023-04-09T05:00:49.073Z,2.22
2023-04-09T05:03:16.531Z,1.70
2023-04-09T05:05:43.491Z,1.60
2023-04-09T05:08:10.461Z,1.65
2023-04-09T05:10:37.478Z,1.30
2023-04-09T05:13:04.329Z,1.60
2023-04-09T05:15:31.478Z,1.50
2023-04-09T05:17:58.441Z,1.83
2023-04-09T05:20:27.672Z,1.80
2023-04-09T05:22:54.478Z,1.33
2023-04-09T05:25:21.419Z,1.80
2023-04-09T05:27:48.221Z,2.60
2023-04-09T05:30:15.005Z,2.22
2023-04-09T05:32:42.057Z,1.95
2023-04-09T05:35:09.152Z,1.83
2023-04-09T05:37:36.044Z,1.50
2023-04-09T05:40:02.948Z,1.50
2023-04-09T05:42:29.701Z,1.27
2023-04-09T05:44:56.729Z,1.20
2023-04-09T05:47:23.500Z,1.30
2023-04-09T05:49:50.298Z,1.30
2023-04-09T05:52:17.259Z,2.00
2023-04-09T05:54:44.046Z,2.03
2023-04-09T05:57:10.829Z,2.13
2023-04-09T05:59:37.623Z,1.80
2023-04-09T06:02:04.550Z,1.60
2023-04-09T06:04:31.929Z,1.30
2023-04-09T06:07:00.390Z,1.50
2023-04-09T06:09:30.284Z,2.20
2023-04-09T06:11:57.859Z,1.58
2023-04-09T06:14:24.759Z,2.00
2023-04-09T06:16:51.572Z,2.10
2023-04-09T06:19:18.849Z,1.33
2023-04-09T06:21:45.677Z,1.77
2023-04-09T06:24:12.773Z,1.20
2023-04-09T06:26:39.603Z,1.23
2023-04-09T06:29:06.503Z,1.17
2023-04-09T06:31:33.541Z,1.27
2023-04-09T06:34:00.464Z,1.20
2023-04-09T06:36:27.872Z,0.82
2023-04-09T06:38:54.949Z,1.13
2023-04-09T06:41:23.052Z,1.55
2023-04-09T06:43:50.239Z,1.45
2023-04-09T06:46:17.568Z,1.50
2023-04-09T06:48:44.846Z,1.50
2023-04-09T06:51:12.032Z,1.38
2023-04-09T06:53:39.486Z,1.60
2023-04-09T06:56:06.849Z,1.55
2023-04-09T06:58:33.916Z,1.55
2023-04-09T07:01:01.156Z,1.73
2023-04-09T07:03:28.916Z,1.67
2023-04-09T07:05:56.598Z,2.05
2023-04-09T07:08:23.929Z,2.33
2023-04-09T07:10:50.745Z,2.85
2023-04-09T07:13:17.941Z,3.00
2023-04-09T07:15:45.271Z,3.03
2023-04-09T07:18:12.136Z,5.45
2023-04-09T07:20:39.065Z,6.43
2023-04-09T07:23:06.408Z,6.63
2023-04-09T07:25:34.010Z,7.03
2023-04-09T07:28:00.858Z,7.10
2023-04-09T07:30:27.643Z,8.07
2023-04-09T07:32:55.237Z,7.90
2023-04-09T07:35:22.232Z,7.57
2023-04-09T07:37:49.649Z,7.70
2023-04-09T07:40:16.884Z,8.45
2023-04-09T07:42:43.750Z,8.75
2023-04-09T07:45:10.684Z,8.85
2023-04-09T07:47:39.254Z,8.90
2023-04-09T07:50:07.305Z,7.70
2023-04-09T07:52:34.128Z,9.30
2023-04-09T07:55:01.626Z,8.32
2023-04-09T07:57:28.373Z,7.70
2023-04-09T07:59:55.607Z,8.02
2023-04-09T08:02:23.925Z,7.15
2023-04-09T08:04:51.253Z,6.90
2023-04-09T08:07:18.673Z,7.03
2023-04-09T08:09:46.077Z,5.65
2023-04-09T08:12:13.760Z,5.93
2023-04-09T08:14:41.425Z,6.85
2023-04-09T08:17:08.697Z,7.80
2023-04-09T08:19:36.035Z,8.25
2023-04-09T08:22:03.303Z,8.57
2023-04-09T08:24:31.455Z,9.68
2023-04-09T08:26:58.738Z,9.02
2023-04-09T08:29:27.997Z,6.70
2023-04-09T08:31:55.293Z,7.60
2023-04-09T08:34:22.644Z,7.55
2023-04-09T08:36:50.161Z,8.13
2023-04-09T08:39:21.197Z,7.88
2023-04-09T08:41:48.521Z,7.28
2023-04-09T08:44:16.730Z,7.25
2023-04-09T08:46:44.789Z,8.38
2023-04-09T08:49:12.937Z,7.93
2023-04-09T08:51:40.430Z,7.55
2023-04-09T08:54:08.297Z,8.05
2023-04-09T08:56:35.834Z,6.18
2023-04-09T08:59:03.087Z,5.93
2023-04-09T09:01:31.490Z,7.85
2023-04-09T09:04:04.319Z,8.52
2023-04-09T09:06:33.707Z,8.98
2023-04-09T09:09:01.827Z,9.52
2023-04-09T09:11:30.409Z,8.48
2023-04-09T09:14:07.520Z,9.80
2023-04-09T09:16:40.176Z,6.47
2023-04-09T09:19:07.622Z,7.75
2023-04-09T09:21:36.485Z,8.13
2023-04-09T09:24:16.836Z,7.55
2023-04-09T09:26:44.104Z,8.30
2023-04-09T09:29:11.531Z,8.80
2023-04-09T09:31:51.650Z,8.35
2023-04-09T09:34:19.508Z,7.60
2023-04-09T09:36:47.376Z,6.00
2023-04-09T09:39:17.257Z,5.40
2023-04-09T09:41:45.373Z,6.90
2023-04-09T09:44:13.247Z,5.18
2023-04-09T09:46:42.602Z,5.40
2023-04-09T09:49:10.396Z,4.40
2023-04-09T09:51:40.145Z,5.05
2023-04-09T09:54:09.226Z,5.50
2023-04-09T09:56:37.072Z,4.97
2023-04-09T09:59:07.548Z,7.03
2023-04-09T10:01:38.354Z,7.22
2023-04-09T10:04:07.406Z,6.03
2023-04-09T10:06:34.889Z,6.10
2023-04-09T10:09:05.128Z,6.13
2023-04-09T10:11:34.326Z,4.68
2023-04-09T10:14:02.591Z,4.75
2023-04-09T10:16:29.926Z,4.75
2023-04-09T10:18:58.269Z,5.00
2023-04-09T10:21:25.558Z,4.07
2023-04-09T10:23:52.957Z,4.95
2023-04-09T10:26:20.790Z,4.25
2023-04-09T10:28:48.009Z,3.58
2023-04-09T10:31:15.494Z,3.25
2023-04-09T10:33:44.177Z,4.18
2023-04-09T10:36:12.697Z,5.13
2023-04-09T10:38:41.587Z,4.15
2023-04-09T10:41:16.308Z,5.13
2023-04-09T10:43:44.015Z,4.30
2023-04-09T10:46:30.998Z,6.65
2023-04-09T10:49:10.468Z,6.70
2023-04-09T10:51:38.924Z,6.32
2023-04-09T10:54:24.914Z,5.43
2023-04-09T10:57:13.803Z,5.22
2023-04-09T10:59:45.477Z,4.70
2023-04-09T11:02:32.961Z,4.97
2023-04-09T11:05:02.995Z,4.65
2023-04-09T11:07:31.240Z,6.18
2023-04-09T11:09:58.470Z,6.82
2023-04-09T11:12:25.843Z,6.43
2023-04-09T11:14:53.157Z,6.00
2023-04-09T11:17:20.739Z,6.22
2023-04-09T11:19:48.029Z,4.03
2023-04-09T11:22:16.740Z,3.15
2023-04-09T11:24:44.698Z,2.75
2023-04-09T11:27:11.882Z,3.08
2023-04-09T11:29:39.230Z,2.55
2023-04-09T11:32:06.538Z,4.00
2023-04-09T11:34:33.857Z,3.67
2023-04-09T11:37:05.414Z,4.15
2023-04-09T11:39:32.658Z,3.60
2023-04-09T11:41:59.892Z,3.20
2023-04-09T11:44:27.161Z,2.83
2023-04-09T11:46:54.534Z,3.00
2023-04-09T11:49:21.913Z,3.45
2023-04-09T11:51:49.221Z,3.30
2023-04-09T11:54:16.462Z,3.28
2023-04-09T11:56:43.685Z,3.20
2023-04-09T11:59:10.979Z,3.33
2023-04-09T12:01:38.292Z,2.60
2023-04-09T12:04:05.872Z,2.20
2023-04-09T12:06:33.316Z,2.50
2023-04-09T12:09:00.698Z,3.10
2023-04-09T12:11:31.956Z,2.92
2023-04-09T12:13:59.932Z,2.22
2023-04-09T12:16:27.360Z,3.13
2023-04-09T12:18:55.952Z,2.60
2023-04-09T12:21:27.169Z,3.13
2023-04-09T12:23:54.423Z,2.97
2023-04-09T12:26:21.671Z,2.80
2023-04-09T12:28:48.903Z,2.53
2023-04-09T12:31:16.515Z,3.03
2023-04-09T12:33:43.949Z,3.10
2023-04-09T12:36:11.242Z,3.90
2023-04-09T12:38:38.476Z,3.72
2023-04-09T12:41:05.804Z,3.03
2023-04-09T12:43:33.066Z,3.25
2023-04-09T12:46:00.351Z,3.65
2023-04-09T12:48:27.725Z,3.47
2023-04-09T12:50:54.982Z,2.63
2023-04-09T12:53:22.239Z,2.72
2023-04-09T12:55:49.481Z,2.65
2023-04-09T12:58:16.686Z,3.00
2023-04-09T13:00:43.894Z,3.10
2023-04-09T13:03:11.942Z,3.03
2023-04-09T13:05:39.300Z,2.70
2023-04-09T13:08:06.854Z,2.50
2023-04-09T13:10:34.462Z,2.45
2023-04-09T13:13:01.699Z,2.33
2023-04-09T13:15:29.172Z,2.90
2023-04-09T13:17:57.287Z,2.85
2023-04-09T13:20:24.536Z,2.97
2023-04-09T13:22:52.438Z,2.55
2023-04-09T13:25:19.720Z,2.75
2023-04-09T13:27:47.018Z,2.58
2023-04-09T13:30:14.385Z,2.88
2023-04-09T13:32:42.275Z,2.63
2023-04-09T13:35:10.369Z,2.60
2023-04-09T13:37:37.676Z,3.00
2023-04-09T13:40:05.081Z,2.63
2023-04-09T13:42:32.537Z,2.63
2023-04-09T13:44:59.777Z,2.60
2023-04-09T13:47:27.138Z,3.47
2023-04-09T13:49:54.406Z,3.25
2023-04-09T13:52:21.637Z,2.50
2023-04-09T13:54:49.511Z,3.20
2023-04-09T13:57:17.100Z,4.10
2023-04-09T13:59:44.300Z,2.92
2023-04-09T14:02:11.764Z,2.70
2023-04-09T14:04:39.246Z,2.40
2023-04-09T14:07:06.552Z,2.58
2023-04-09T14:09:33.796Z,2.30
2023-04-09T14:12:01.953Z,2.83
2023-04-09T14:14:29.202Z,2.40
2023-04-09T14:16:56.468Z,2.75
2023-04-09T14:19:24.005Z,2.40
2023-04-09T14:21:53.295Z,2.10
2023-04-09T14:24:23.042Z,2.50
2023-04-09T14:26:53.487Z,2.42
2023-04-09T14:29:21.567Z,2.65
2023-04-09T14:31:48.836Z,1.75
2023-04-09T14:34:16.181Z,2.10
2023-04-09T14:36:43.483Z,2.20
2023-04-09T14:39:11.295Z,2.22
2023-04-09T14:41:38.587Z,2.20
2023-04-09T14:44:05.988Z,2.50
2023-04-09T14:46:33.326Z,1.73
2023-04-09T14:49:01.012Z,2.00
2023-04-09T14:51:30.405Z,2.47
2023-04-09T14:53:58.012Z,2.50
2023-04-09T14:56:25.303Z,2.40
2023-04-09T14:58:52.844Z,2.10
2023-04-09T15:01:20.908Z,2.25
2023-04-09T15:03:48.299Z,2.75
2023-04-09T15:06:15.746Z,2.40
2023-04-09T15:08:42.935Z,2.00
2023-04-09T15:11:15.380Z,2.22
2023-04-09T15:13:42.667Z,3.13
2023-04-09T15:16:10.008Z,3.25
2023-04-09T15:18:37.562Z,2.88
2023-04-09T15:21:04.862Z,2.15
2023-04-09T15:23:32.154Z,2.13
2023-04-09T15:25:59.483Z,2.00
2023-04-09T15:28:26.773Z,2.08
2023-04-09T15:30:55.801Z,2.05
2023-04-09T15:33:23.016Z,2.20
2023-04-09T15:35:50.321Z,2.38
2023-04-09T15:38:17.824Z,1.83
2023-04-09T15:40:45.060Z,1.70
2023-04-09T15:43:12.285Z,1.90
2023-04-09T15:45:39.493Z,2.03
2023-04-09T15:48:06.875Z,1.55
2023-04-09T15:50:35.200Z,1.85
2023-04-09T15:53:02.419Z,1.50
2023-04-09T15:55:29.733Z,1.52
2023-04-09T15:57:56.966Z,1.60
2023-04-09T16:00:24.316Z,1.83
2023-04-09T16:02:53.054Z,1.90
2023-04-09T16:05:20.320Z,3.10
2023-04-09T16:07:47.533Z,3.63
2023-04-09T16:10:14.785Z,3.22
2023-04-09T16:12:42.016Z,2.83
2023-04-09T16:15:09.657Z,2.42
2023-04-09T16:17:40.829Z,3.30
2023-04-09T16:20:08.850Z,3.35
2023-04-09T16:22:36.204Z,4.20
2023-04-09T16:25:03.533Z,3.60
2023-04-09T16:27:30.917Z,4.53
2023-04-09T16:29:58.155Z,3.08
2023-04-09T16:32:25.481Z,2.58
2023-04-09T16:34:52.840Z,3.00
2023-04-09T16:37:20.334Z,4.35
2023-04-09T16:39:47.602Z,3.10
2023-04-09T16:42:14.846Z,3.92
2023-04-09T16:44:42.098Z,3.47
2023-04-09T16:47:09.646Z,2.75
2023-04-09T16:49:36.994Z,2.80
2023-04-09T16:52:04.218Z,3.22
2023-04-09T16:54:31.772Z,2.22
2023-04-09T16:56:59.018Z,2.30
2023-04-09T16:59:26.240Z,2.67
2023-04-09T17:01:53.556Z,2.35
2023-04-09T17:04:21.285Z,1.98
2023-04-09T17:06:48.653Z,1.50
2023-04-09T17:09:16.534Z,1.90
2023-04-09T17:11:44.664Z,1.52
2023-04-09T17:14:12.161Z,1.90
2023-04-09T17:16:39.552Z,1.90
2023-04-09T17:19:06.960Z,2.83
2023-04-09T17:21:34.220Z,3.42
2023-04-09T17:24:02.862Z,4.38
2023-04-09T17:26:30.328Z,4.38
2023-04-09T17:28:57.581Z,4.00
2023-04-09T17:31:25.087Z,3.50
2023-04-09T17:33:52.366Z,2.70
2023-04-09T17:36:20.468Z,2.25
2023-04-09T17:38:47.877Z,2.10
2023-04-09T17:41:15.649Z,3.03
2023-04-09T17:43:42.870Z,3.40
2023-04-09T17:46:10.296Z,3.42
2023-04-09T17:48:37.722Z,2.88
2023-04-09T17:51:05.926Z,2.42
2023-04-09T17:53:33.262Z,1.90
2023-04-09T17:56:03.027Z,1.90
2023-04-09T17:58:30.385Z,1.63
2023-04-09T18:00:58.860Z,1.45
2023-04-09T18:03:26.483Z,1.27
2023-04-09T18:05:54.348Z,1.30
2023-04-09T18:08:21.717Z,1.38
2023-04-09T18:11:05.001Z,1.27
2023-04-09T18:13:39.060Z,1.30
2023-04-09T18:16:09.551Z,1.17
2023-04-09T18:18:36.782Z,1.40
2023-04-09T18:21:07.110Z,1.50
2023-04-09T18:23:44.202Z,1.10
2023-04-09T18:26:11.774Z,0.98
2023-04-09T18:28:39.505Z,1.10
2023-04-09T18:31:07.335Z,2.17
2023-04-09T18:33:34.565Z,2.60
2023-04-09T18:36:02.345Z,1.90
2023-04-09T18:38:30.581Z,2.10
2023-04-09T18:40:57.987Z,1.73
2023-04-09T18:43:26.000Z,2.13
2023-04-09T18:45:54.878Z,2.50
2023-04-09T18:48:22.996Z,2.47
2023-04-09T18:50:50.262Z,1.80
2023-04-09T18:53:17.502Z,2.20
2023-04-09T18:55:46.984Z,2.53
2023-04-09T18:58:15.720Z,1.98
2023-04-09T19:00:43.735Z,1.70
2023-04-09T19:03:12.282Z,1.80
2023-04-09T19:05:39.812Z,1.83
2023-04-09T19:08:07.546Z,1.45
2023-04-09T19:10:34.882Z,1.80
2023-04-09T19:13:02.424Z,1.60
2023-04-09T19:15:29.683Z,1.35
2023-04-09T19:17:57.461Z,1.80
2023-04-09T19:20:24.822Z,2.35
2023-04-09T19:22:54.473Z,2.75
2023-04-09T19:25:22.904Z,2.28
2023-04-09T19:27:50.410Z,2.30
2023-04-09T19:30:17.670Z,2.67
2023-04-09T19:32:46.008Z,2.53
2023-04-09T19:35:13.325Z,2.42
2023-04-09T19:37:42.220Z,2.00
2023-04-09T19:40:10.357Z,2.42
2023-04-09T19:42:37.791Z,2.30
2023-04-09T19:45:05.152Z,2.35
2023-04-09T19:47:34.013Z,2.60
2023-04-09T19:50:01.369Z,2.70
2023-04-09T19:52:28.738Z,2.40
2023-04-09T19:54:56.474Z,1.92
2023-04-09T19:57:24.061Z,1.80
2023-04-09T19:59:52.323Z,2.20
2023-04-09T20:02:19.702Z,2.03
2023-04-09T20:04:47.128Z,1.95
2023-04-09T20:07:15.544Z,2.13
2023-04-09T20:09:43.592Z,2.15
2023-04-09T20:12:10.974Z,2.28
2023-04-09T20:14:43.937Z,2.20
2023-04-09T20:17:11.554Z,2.50
2023-04-09T20:19:38.856Z,2.30
2023-04-09T20:22:06.152Z,2.00
2023-04-09T20:24:33.988Z,2.22
2023-04-09T20:27:01.571Z,2.50
2023-04-09T20:29:28.871Z,1.95
2023-04-09T20:31:56.155Z,2.00
2023-04-09T20:34:26.858Z,2.05
2023-04-09T20:36:54.490Z,1.80
2023-04-09T20:39:22.529Z,2.20
2023-04-09T20:41:49.788Z,1.67
2023-04-09T20:44:17.069Z,1.52
2023-04-09T20:46:44.383Z,1.50
2023-04-09T20:49:12.367Z,1.50
2023-04-09T20:51:40.000Z,1.52
2023-04-09T20:54:07.280Z,1.80
2023-04-09T20:56:34.700Z,1.90
2023-04-09T20:59:02.353Z,1.98
2023-04-09T21:01:29.603Z,2.10
2023-04-09T21:03:56.859Z,2.50
2023-04-09T21:06:23.860Z,1.80
2023-04-09T21:08:51.707Z,1.77
2023-04-09T21:11:18.650Z,1.63
2023-04-09T21:13:54.709Z,1.45
2023-04-09T21:16:22.923Z,1.73
2023-04-09T21:18:50.389Z,1.63
2023-04-09T21:21:17.254Z,1.80
2023-04-09T21:23:44.025Z,1.70
2023-04-09T21:26:11.555Z,1.85
2023-04-09T21:28:38.319Z,1.85
2023-04-09T21:31:05.363Z,1.40
2023-04-09T21:33:32.223Z,1.40
2023-04-09T21:35:59.041Z,2.15
2023-04-09T21:38:26.061Z,2.30
2023-04-09T21:40:52.860Z,2.20
2023-04-09T21:43:19.616Z,2.50
2023-04-09T21:45:46.629Z,2.28
2023-04-09T21:48:13.669Z,2.20
2023-04-09T21:50:40.589Z,2.58
2023-04-09T21:53:08.189Z,1.70
2023-04-09T21:55:37.122Z,1.77
2023-04-09T21:58:03.976Z,1.73
2023-04-09T22:00:30.915Z,1.95
2023-04-09T22:03:01.359Z,1.75
2023-04-09T22:05:29.049Z,1.30
2023-04-09T22:07:56.478Z,1.15
2023-04-09T22:10:23.692Z,1.67
2023-04-09T22:12:50.686Z,1.00
2023-04-09T22:15:17.832Z,0.98
2023-04-09T22:17:44.736Z,1.20
2023-04-09T22:20:11.633Z,1.20
2023-04-09T22:22:38.562Z,0.90
2023-04-09T22:25:07.013Z,1.00
2023-04-09T22:27:34.404Z,1.00
2023-04-09T22:30:01.226Z,0.95
2023-04-09T22:32:28.893Z,0.90
2023-04-09T22:34:55.693Z,1.05
2023-04-09T22:37:22.451Z,0.95
2023-04-09T22:39:49.264Z,1.38
2023-04-09T22:42:16.274Z,1.10
2023-04-09T22:44:43.171Z,1.00
2023-04-09T22:47:09.970Z,1.10
2023-04-09T22:49:36.722Z,1.52
2023-04-09T22:52:03.456Z,1.00
2023-04-09T22:54:30.551Z,1.05
2023-04-09T22:56:57.856Z,1.20
2023-04-09T22:59:30.472Z,0.98
2023-04-09T23:02:06.061Z,1.65
2023-04-09T23:04:34.979Z,1.40
2023-04-09T23:07:02.536Z,1.60
2023-04-09T23:09:30.983Z,1.40
2023-04-09T23:11:57.999Z,1.40
2023-04-09T23:14:24.880Z,1.20
2023-04-09T23:16:51.698Z,1.20
2023-04-09T23:19:18.443Z,1.40
2023-04-09T23:21:45.267Z,1.45
2023-04-09T23:24:12.026Z,1.80
2023-04-09T23:26:38.786Z,1.90
2023-04-09T23:29:05.816Z,1.70
2023-04-09T23:31:32.576Z,2.10
2023-04-09T23:33:59.378Z,1.88
2023-04-09T23:36:26.748Z,1.42
2023-04-09T23:38:53.477Z,1.83
2023-04-09T23:41:20.968Z,2.30
2023-04-09T23:43:47.755Z,2.80
2023-04-09T23:46:14.525Z,2.25
2023-04-09T23:48:41.339Z,2.00
2023-04-09T23:51:08.149Z,1.55
2023-04-09T23:53:34.929Z,1.88
2023-04-09T23:56:01.733Z,2.22
2023-04-09T23:58:28.563Z,2.20
